sensor_id;sensor_type;location;lat;lon;timestamp;P1;durP1;ratioP1;P2;durP2;ratioP2
68188;SDS011;66299;47.514;19.218;2023-07-20T00:00:16;13.30;;;4.20;;
68188;SDS011;66299;47.514;19.218;2023-07-20T00:02:53;12.98;;;3.85;;
68188;SDS011;66299;47.514;19.218;2023-07-20T00:05:39;15.23;;;4.18;;
68188;SDS011;66299;47.514;19.218;2023-07-20T00:08:09;17.13;;;4.10;;
68188;SDS011;66299;47.514;19.218;2023-07-20T00:10:41;10.13;;;3.90;;
68188;SDS011;66299;47.514;19.218;2023-07-20T00:13:10;12.00;;;4.13;;
68188;SDS011;66299;47.514;19.218;2023-07-20T00:15:39;13.00;;;4.00;;
68188;SDS011;66299;47.514;19.218;2023-07-20T00:18:09;12.45;;;4.25;;
68188;SDS011;66299;47.514;19.218;2023-07-20T00:20:38;13.88;;;4.22;;
68188;SDS011;66299;47.514;19.218;2023-07-20T00:23:07;11.32;;;4.10;;
68188;SDS011;66299;47.514;19.218;2023-07-20T00:25:39;12.90;;;4.30;;
68188;SDS011;66299;47.514;19.218;2023-07-20T00:28:08;14.23;;;4.65;;
68188;SDS011;66299;47.514;19.218;2023-07-20T00:30:37;14.90;;;4.43;;
68188;SDS011;66299;47.514;19.218;2023-07-20T00:33:09;13.80;;;4.60;;
68188;SDS011;66299;47.514;19.218;2023-07-20T00:35:39;16.08;;;4.07;;
68188;SDS011;66299;47.514;19.218;2023-07-20T00:38:07;12.70;;;4.32;;
68188;SDS011;66299;47.514;19.218;2023-07-20T00:40:36;14.10;;;4.22;;
68188;SDS011;66299;47.514;19.218;2023-07-20T00:43:12;14.50;;;4.40;;
68188;SDS011;66299;47.514;19.218;2023-07-20T00:45:51;18.30;;;4.60;;
68188;SDS011;66299;47.514;19.218;2023-07-20T00:48:20;15.25;;;4.45;;
68188;SDS011;66299;47.514;19.218;2023-07-20T00:50:49;12.73;;;4.25;;
68188;SDS011;66299;47.514;19.218;2023-07-20T00:53:20;14.93;;;4.47;;
68188;SDS011;66299;47.514;19.218;2023-07-20T00:55:49;13.63;;;4.47;;
68188;SDS011;66299;47.514;19.218;2023-07-20T00:58:19;14.57;;;4.88;;
68188;SDS011;66299;47.514;19.218;2023-07-20T01:00:50;12.77;;;4.20;;
68188;SDS011;66299;47.514;19.218;2023-07-20T01:03:20;14.73;;;4.25;;
68188;SDS011;66299;47.514;19.218;2023-07-20T01:05:54;11.48;;;4.35;;
68188;SDS011;66299;47.514;19.218;2023-07-20T01:08:32;15.60;;;4.88;;
68188;SDS011;66299;47.514;19.218;2023-07-20T01:11:09;13.32;;;4.72;;
68188;SDS011;66299;47.514;19.218;2023-07-20T01:13:44;15.15;;;4.95;;
68188;SDS011;66299;47.514;19.218;2023-07-20T01:16:15;14.95;;;5.00;;
68188;SDS011;66299;47.514;19.218;2023-07-20T01:18:44;18.17;;;4.85;;
68188;SDS011;66299;47.514;19.218;2023-07-20T01:21:13;13.85;;;4.72;;
68188;SDS011;66299;47.514;19.218;2023-07-20T01:24:00;13.93;;;4.78;;
68188;SDS011;66299;47.514;19.218;2023-07-20T01:26:49;16.40;;;4.82;;
68188;SDS011;66299;47.514;19.218;2023-07-20T01:29:41;12.88;;;4.43;;
68188;SDS011;66299;47.514;19.218;2023-07-20T01:32:24;16.40;;;4.90;;
68188;SDS011;66299;47.514;19.218;2023-07-20T01:34:54;16.25;;;5.00;;
68188;SDS011;66299;47.514;19.218;2023-07-20T01:37:26;22.63;;;5.07;;
68188;SDS011;66299;47.514;19.218;2023-07-20T01:39:57;14.93;;;4.90;;
68188;SDS011;66299;47.514;19.218;2023-07-20T01:42:31;11.07;;;4.40;;
68188;SDS011;66299;47.514;19.218;2023-07-20T01:45:04;15.00;;;4.80;;
68188;SDS011;66299;47.514;19.218;2023-07-20T01:47:34;12.85;;;4.70;;
68188;SDS011;66299;47.514;19.218;2023-07-20T01:50:03;12.85;;;4.28;;
68188;SDS011;66299;47.514;19.218;2023-07-20T01:52:33;13.75;;;4.40;;
68188;SDS011;66299;47.514;19.218;2023-07-20T01:55:04;13.07;;;5.00;;
68188;SDS011;66299;47.514;19.218;2023-07-20T01:57:35;17.05;;;4.93;;
68188;SDS011;66299;47.514;19.218;2023-07-20T02:00:05;15.07;;;4.30;;
68188;SDS011;66299;47.514;19.218;2023-07-20T02:02:37;14.32;;;4.78;;
68188;SDS011;66299;47.514;19.218;2023-07-20T02:05:06;18.50;;;4.93;;
68188;SDS011;66299;47.514;19.218;2023-07-20T02:07:36;15.52;;;5.05;;
68188;SDS011;66299;47.514;19.218;2023-07-20T02:10:09;12.07;;;4.22;;
68188;SDS011;66299;47.514;19.218;2023-07-20T02:12:41;13.90;;;5.07;;
68188;SDS011;66299;47.514;19.218;2023-07-20T02:15:14;16.65;;;5.00;;
68188;SDS011;66299;47.514;19.218;2023-07-20T02:17:45;13.65;;;4.63;;
68188;SDS011;66299;47.514;19.218;2023-07-20T02:20:13;15.93;;;5.10;;
68188;SDS011;66299;47.514;19.218;2023-07-20T02:22:42;14.45;;;5.18;;
68188;SDS011;66299;47.514;19.218;2023-07-20T02:25:11;15.23;;;4.65;;
68188;SDS011;66299;47.514;19.218;2023-07-20T02:27:40;14.43;;;4.70;;
68188;SDS011;66299;47.514;19.218;2023-07-20T02:30:09;14.75;;;5.18;;
68188;SDS011;66299;47.514;19.218;2023-07-20T02:32:38;15.18;;;5.50;;
68188;SDS011;66299;47.514;19.218;2023-07-20T02:35:08;14.70;;;5.38;;
68188;SDS011;66299;47.514;19.218;2023-07-20T02:37:37;17.00;;;4.70;;
68188;SDS011;66299;47.514;19.218;2023-07-20T02:40:08;13.55;;;5.15;;
68188;SDS011;66299;47.514;19.218;2023-07-20T02:42:38;15.43;;;5.40;;
68188;SDS011;66299;47.514;19.218;2023-07-20T02:45:07;14.93;;;5.45;;
68188;SDS011;66299;47.514;19.218;2023-07-20T02:47:38;15.20;;;5.10;;
68188;SDS011;66299;47.514;19.218;2023-07-20T02:50:08;11.73;;;4.80;;
68188;SDS011;66299;47.514;19.218;2023-07-20T02:52:38;14.27;;;4.88;;
68188;SDS011;66299;47.514;19.218;2023-07-20T02:55:08;14.30;;;4.97;;
68188;SDS011;66299;47.514;19.218;2023-07-20T02:57:37;14.75;;;4.78;;
68188;SDS011;66299;47.514;19.218;2023-07-20T03:00:06;14.77;;;5.10;;
68188;SDS011;66299;47.514;19.218;2023-07-20T03:02:37;14.30;;;5.25;;
68188;SDS011;66299;47.514;19.218;2023-07-20T03:05:07;15.52;;;5.20;;
68188;SDS011;66299;47.514;19.218;2023-07-20T03:07:41;12.18;;;4.78;;
68188;SDS011;66299;47.514;19.218;2023-07-20T03:10:11;15.35;;;5.35;;
68188;SDS011;66299;47.514;19.218;2023-07-20T03:12:42;18.67;;;5.47;;
68188;SDS011;66299;47.514;19.218;2023-07-20T03:15:10;15.10;;;5.22;;
68188;SDS011;66299;47.514;19.218;2023-07-20T03:17:45;16.75;;;5.30;;
68188;SDS011;66299;47.514;19.218;2023-07-20T03:20:20;13.40;;;5.20;;
68188;SDS011;66299;47.514;19.218;2023-07-20T03:22:50;14.80;;;5.18;;
68188;SDS011;66299;47.514;19.218;2023-07-20T03:25:21;18.50;;;5.57;;
68188;SDS011;66299;47.514;19.218;2023-07-20T03:27:54;16.48;;;6.03;;
68188;SDS011;66299;47.514;19.218;2023-07-20T03:30:24;24.15;;;6.07;;
68188;SDS011;66299;47.514;19.218;2023-07-20T03:32:55;12.85;;;5.53;;
68188;SDS011;66299;47.514;19.218;2023-07-20T03:35:25;14.18;;;5.75;;
68188;SDS011;66299;47.514;19.218;2023-07-20T03:37:56;16.55;;;5.97;;
68188;SDS011;66299;47.514;19.218;2023-07-20T03:40:25;14.80;;;4.75;;
68188;SDS011;66299;47.514;19.218;2023-07-20T03:42:54;14.13;;;4.70;;
68188;SDS011;66299;47.514;19.218;2023-07-20T03:45:26;14.73;;;5.20;;
68188;SDS011;66299;47.514;19.218;2023-07-20T03:47:55;14.93;;;4.68;;
68188;SDS011;66299;47.514;19.218;2023-07-20T03:50:26;13.70;;;4.57;;
68188;SDS011;66299;47.514;19.218;2023-07-20T03:52:58;12.10;;;4.43;;
68188;SDS011;66299;47.514;19.218;2023-07-20T03:55:28;11.52;;;4.53;;
68188;SDS011;66299;47.514;19.218;2023-07-20T03:58:01;15.77;;;4.80;;
68188;SDS011;66299;47.514;19.218;2023-07-20T04:00:30;13.32;;;4.32;;
68188;SDS011;66299;47.514;19.218;2023-07-20T04:03:00;15.18;;;4.30;;
68188;SDS011;66299;47.514;19.218;2023-07-20T04:05:31;11.20;;;4.45;;
68188;SDS011;66299;47.514;19.218;2023-07-20T04:08:05;12.32;;;4.25;;
68188;SDS011;66299;47.514;19.218;2023-07-20T04:10:36;11.38;;;4.05;;
68188;SDS011;66299;47.514;19.218;2023-07-20T04:13:06;15.40;;;4.35;;
68188;SDS011;66299;47.514;19.218;2023-07-20T04:15:35;16.92;;;4.03;;
68188;SDS011;66299;47.514;19.218;2023-07-20T04:18:10;12.05;;;3.85;;
68188;SDS011;66299;47.514;19.218;2023-07-20T04:20:42;13.95;;;4.15;;
68188;SDS011;66299;47.514;19.218;2023-07-20T04:23:14;11.20;;;3.67;;
68188;SDS011;66299;47.514;19.218;2023-07-20T04:25:44;10.88;;;3.72;;
68188;SDS011;66299;47.514;19.218;2023-07-20T04:28:12;10.40;;;3.90;;
68188;SDS011;66299;47.514;19.218;2023-07-20T04:30:48;12.15;;;3.80;;
68188;SDS011;66299;47.514;19.218;2023-07-20T04:33:17;9.85;;;3.70;;
68188;SDS011;66299;47.514;19.218;2023-07-20T04:35:52;12.02;;;3.75;;
68188;SDS011;66299;47.514;19.218;2023-07-20T04:38:23;13.80;;;4.03;;
68188;SDS011;66299;47.514;19.218;2023-07-20T04:40:51;9.70;;;3.80;;
68188;SDS011;66299;47.514;19.218;2023-07-20T04:43:21;11.35;;;3.80;;
68188;SDS011;66299;47.514;19.218;2023-07-20T04:45:52;13.40;;;3.70;;
68188;SDS011;66299;47.514;19.218;2023-07-20T04:48:20;14.50;;;3.95;;
68188;SDS011;66299;47.514;19.218;2023-07-20T04:50:54;13.00;;;3.80;;
68188;SDS011;66299;47.514;19.218;2023-07-20T04:53:24;11.70;;;3.70;;
68188;SDS011;66299;47.514;19.218;2023-07-20T04:55:53;10.32;;;3.70;;
68188;SDS011;66299;47.514;19.218;2023-07-20T04:58:22;10.02;;;3.65;;
68188;SDS011;66299;47.514;19.218;2023-07-20T05:01:02;12.02;;;4.00;;
68188;SDS011;66299;47.514;19.218;2023-07-20T05:03:32;12.70;;;3.85;;
68188;SDS011;66299;47.514;19.218;2023-07-20T05:06:05;11.30;;;3.87;;
68188;SDS011;66299;47.514;19.218;2023-07-20T05:11:06;13.57;;;4.32;;
68188;SDS011;66299;47.514;19.218;2023-07-20T05:13:36;11.68;;;4.03;;
68188;SDS011;66299;47.514;19.218;2023-07-20T05:16:17;10.95;;;3.70;;
68188;SDS011;66299;47.514;19.218;2023-07-20T05:18:46;10.35;;;4.10;;
68188;SDS011;66299;47.514;19.218;2023-07-20T05:21:16;10.73;;;3.80;;
68188;SDS011;66299;47.514;19.218;2023-07-20T05:23:46;12.20;;;4.05;;
68188;SDS011;66299;47.514;19.218;2023-07-20T05:26:14;9.73;;;3.72;;
68188;SDS011;66299;47.514;19.218;2023-07-20T05:28:45;12.25;;;4.20;;
68188;SDS011;66299;47.514;19.218;2023-07-20T05:31:15;14.52;;;4.20;;
68188;SDS011;66299;47.514;19.218;2023-07-20T05:33:45;11.90;;;4.05;;
68188;SDS011;66299;47.514;19.218;2023-07-20T05:36:19;9.90;;;3.85;;
68188;SDS011;66299;47.514;19.218;2023-07-20T05:38:49;11.75;;;4.22;;
68188;SDS011;66299;47.514;19.218;2023-07-20T05:41:20;12.37;;;3.87;;
68188;SDS011;66299;47.514;19.218;2023-07-20T05:43:49;13.35;;;3.90;;
68188;SDS011;66299;47.514;19.218;2023-07-20T05:46:19;14.65;;;4.10;;
68188;SDS011;66299;47.514;19.218;2023-07-20T05:48:49;10.00;;;3.83;;
68188;SDS011;66299;47.514;19.218;2023-07-20T05:51:19;11.30;;;4.00;;
68188;SDS011;66299;47.514;19.218;2023-07-20T05:53:50;16.23;;;4.28;;
68188;SDS011;66299;47.514;19.218;2023-07-20T05:56:20;10.02;;;3.70;;
68188;SDS011;66299;47.514;19.218;2023-07-20T05:58:49;9.10;;;3.53;;
68188;SDS011;66299;47.514;19.218;2023-07-20T06:01:17;11.73;;;3.97;;
68188;SDS011;66299;47.514;19.218;2023-07-20T06:03:47;12.57;;;4.03;;
68188;SDS011;66299;47.514;19.218;2023-07-20T06:06:17;12.77;;;4.10;;
68188;SDS011;66299;47.514;19.218;2023-07-20T06:08:49;12.50;;;4.40;;
68188;SDS011;66299;47.514;19.218;2023-07-20T06:11:20;19.77;;;4.35;;
68188;SDS011;66299;47.514;19.218;2023-07-20T06:13:53;11.25;;;3.63;;
68188;SDS011;66299;47.514;19.218;2023-07-20T06:16:26;9.65;;;3.58;;
68188;SDS011;66299;47.514;19.218;2023-07-20T06:18:58;12.15;;;4.25;;
68188;SDS011;66299;47.514;19.218;2023-07-20T06:21:34;16.15;;;4.28;;
68188;SDS011;66299;47.514;19.218;2023-07-20T06:24:05;11.90;;;3.83;;
68188;SDS011;66299;47.514;19.218;2023-07-20T06:26:34;10.60;;;3.92;;
68188;SDS011;66299;47.514;19.218;2023-07-20T06:29:08;11.88;;;4.00;;
68188;SDS011;66299;47.514;19.218;2023-07-20T06:31:39;12.70;;;4.10;;
68188;SDS011;66299;47.514;19.218;2023-07-20T06:34:07;12.75;;;3.72;;
68188;SDS011;66299;47.514;19.218;2023-07-20T06:36:39;15.13;;;4.20;;
68188;SDS011;66299;47.514;19.218;2023-07-20T06:39:10;12.68;;;3.70;;
68188;SDS011;66299;47.514;19.218;2023-07-20T06:41:44;15.88;;;4.10;;
68188;SDS011;66299;47.514;19.218;2023-07-20T06:44:14;13.45;;;4.55;;
68188;SDS011;66299;47.514;19.218;2023-07-20T06:46:45;10.02;;;4.18;;
68188;SDS011;66299;47.514;19.218;2023-07-20T06:49:23;12.30;;;3.70;;
68188;SDS011;66299;47.514;19.218;2023-07-20T06:51:57;13.02;;;4.03;;
68188;SDS011;66299;47.514;19.218;2023-07-20T06:54:28;12.05;;;3.90;;
68188;SDS011;66299;47.514;19.218;2023-07-20T06:57:06;12.52;;;4.00;;
68188;SDS011;66299;47.514;19.218;2023-07-20T06:59:39;12.38;;;4.28;;
68188;SDS011;66299;47.514;19.218;2023-07-20T07:02:09;12.13;;;4.10;;
68188;SDS011;66299;47.514;19.218;2023-07-20T07:04:41;12.80;;;4.30;;
68188;SDS011;66299;47.514;19.218;2023-07-20T07:07:16;11.77;;;3.97;;
68188;SDS011;66299;47.514;19.218;2023-07-20T07:09:49;13.90;;;3.80;;
68188;SDS011;66299;47.514;19.218;2023-07-20T07:12:18;9.38;;;3.55;;
68188;SDS011;66299;47.514;19.218;2023-07-20T07:14:48;18.25;;;4.50;;
68188;SDS011;66299;47.514;19.218;2023-07-20T07:17:22;12.50;;;4.32;;
68188;SDS011;66299;47.514;19.218;2023-07-20T07:19:56;14.52;;;4.35;;
68188;SDS011;66299;47.514;19.218;2023-07-20T07:22:28;12.77;;;3.50;;
68188;SDS011;66299;47.514;19.218;2023-07-20T07:24:58;10.35;;;3.60;;
68188;SDS011;66299;47.514;19.218;2023-07-20T07:27:30;13.93;;;3.88;;
68188;SDS011;66299;47.514;19.218;2023-07-20T07:30:00;10.77;;;3.50;;
68188;SDS011;66299;47.514;19.218;2023-07-20T07:32:30;8.77;;;3.40;;
68188;SDS011;66299;47.514;19.218;2023-07-20T07:34:59;10.02;;;2.97;;
68188;SDS011;66299;47.514;19.218;2023-07-20T07:37:33;10.13;;;3.20;;
68188;SDS011;66299;47.514;19.218;2023-07-20T07:40:23;11.25;;;3.22;;
68188;SDS011;66299;47.514;19.218;2023-07-20T07:42:58;13.02;;;3.40;;
68188;SDS011;66299;47.514;19.218;2023-07-20T07:45:32;11.73;;;3.30;;
68188;SDS011;66299;47.514;19.218;2023-07-20T07:48:05;14.07;;;3.50;;
68188;SDS011;66299;47.514;19.218;2023-07-20T07:50:39;8.48;;;2.92;;
68188;SDS011;66299;47.514;19.218;2023-07-20T07:53:11;14.30;;;3.42;;
68188;SDS011;66299;47.514;19.218;2023-07-20T07:55:45;11.45;;;3.45;;
68188;SDS011;66299;47.514;19.218;2023-07-20T07:58:18;10.10;;;3.35;;
68188;SDS011;66299;47.514;19.218;2023-07-20T08:00:47;10.45;;;3.35;;
68188;SDS011;66299;47.514;19.218;2023-07-20T08:03:17;9.48;;;3.20;;
68188;SDS011;66299;47.514;19.218;2023-07-20T08:05:47;9.68;;;3.47;;
68188;SDS011;66299;47.514;19.218;2023-07-20T08:08:22;9.65;;;3.17;;
68188;SDS011;66299;47.514;19.218;2023-07-20T08:10:52;10.20;;;3.40;;
68188;SDS011;66299;47.514;19.218;2023-07-20T08:13:27;12.10;;;3.30;;
68188;SDS011;66299;47.514;19.218;2023-07-20T08:15:56;12.70;;;3.40;;
68188;SDS011;66299;47.514;19.218;2023-07-20T08:18:26;14.77;;;3.50;;
68188;SDS011;66299;47.514;19.218;2023-07-20T08:20:58;20.17;;;3.70;;
68188;SDS011;66299;47.514;19.218;2023-07-20T08:23:29;8.63;;;3.28;;
68188;SDS011;66299;47.514;19.218;2023-07-20T08:25:59;12.30;;;3.50;;
68188;SDS011;66299;47.514;19.218;2023-07-20T08:28:31;10.55;;;3.17;;
68188;SDS011;66299;47.514;19.218;2023-07-20T08:31:07;10.10;;;3.13;;
68188;SDS011;66299;47.514;19.218;2023-07-20T08:33:39;10.30;;;3.30;;
68188;SDS011;66299;47.514;19.218;2023-07-20T08:36:12;9.93;;;2.80;;
68188;SDS011;66299;47.514;19.218;2023-07-20T08:38:45;10.95;;;2.95;;
68188;SDS011;66299;47.514;19.218;2023-07-20T08:41:20;13.93;;;3.20;;
68188;SDS011;66299;47.514;19.218;2023-07-20T08:43:49;9.90;;;2.95;;
68188;SDS011;66299;47.514;19.218;2023-07-20T08:46:25;16.25;;;3.17;;
68188;SDS011;66299;47.514;19.218;2023-07-20T08:48:56;9.15;;;2.92;;
68188;SDS011;66299;47.514;19.218;2023-07-20T08:51:24;12.15;;;3.03;;
68188;SDS011;66299;47.514;19.218;2023-07-20T08:53:58;10.55;;;3.03;;
68188;SDS011;66299;47.514;19.218;2023-07-20T08:56:28;8.55;;;2.88;;
68188;SDS011;66299;47.514;19.218;2023-07-20T08:58:59;10.35;;;3.10;;
68188;SDS011;66299;47.514;19.218;2023-07-20T09:01:30;10.82;;;3.10;;
68188;SDS011;66299;47.514;19.218;2023-07-20T09:04:03;9.70;;;3.25;;
68188;SDS011;66299;47.514;19.218;2023-07-20T09:06:32;13.57;;;3.70;;
68188;SDS011;66299;47.514;19.218;2023-07-20T09:09:07;13.13;;;3.30;;
68188;SDS011;66299;47.514;19.218;2023-07-20T09:11:37;13.57;;;3.83;;
68188;SDS011;66299;47.514;19.218;2023-07-20T09:14:07;12.38;;;3.03;;
68188;SDS011;66299;47.514;19.218;2023-07-20T09:16:47;12.98;;;3.40;;
68188;SDS011;66299;47.514;19.218;2023-07-20T09:19:23;13.07;;;3.33;;
68188;SDS011;66299;47.514;19.218;2023-07-20T09:21:54;12.37;;;3.40;;
68188;SDS011;66299;47.514;19.218;2023-07-20T09:24:28;9.60;;;2.90;;
68188;SDS011;66299;47.514;19.218;2023-07-20T09:27:01;11.18;;;2.80;;
68188;SDS011;66299;47.514;19.218;2023-07-20T09:29:31;10.90;;;3.00;;
68188;SDS011;66299;47.514;19.218;2023-07-20T09:32:02;10.68;;;2.83;;
68188;SDS011;66299;47.514;19.218;2023-07-20T09:34:34;9.27;;;3.05;;
68188;SDS011;66299;47.514;19.218;2023-07-20T09:37:07;12.38;;;3.00;;
68188;SDS011;66299;47.514;19.218;2023-07-20T09:39:44;9.05;;;2.88;;
68188;SDS011;66299;47.514;19.218;2023-07-20T09:42:21;10.63;;;3.00;;
68188;SDS011;66299;47.514;19.218;2023-07-20T09:44:56;11.60;;;2.72;;
68188;SDS011;66299;47.514;19.218;2023-07-20T09:47:33;9.52;;;2.80;;
68188;SDS011;66299;47.514;19.218;2023-07-20T09:50:06;10.10;;;2.78;;
68188;SDS011;66299;47.514;19.218;2023-07-20T09:52:42;12.27;;;3.30;;
68188;SDS011;66299;47.514;19.218;2023-07-20T09:55:17;11.55;;;2.78;;
68188;SDS011;66299;47.514;19.218;2023-07-20T09:57:52;8.65;;;2.90;;
68188;SDS011;66299;47.514;19.218;2023-07-20T10:00:24;10.88;;;3.08;;
68188;SDS011;66299;47.514;19.218;2023-07-20T10:03:00;9.77;;;3.05;;
68188;SDS011;66299;47.514;19.218;2023-07-20T10:05:33;11.85;;;2.90;;
68188;SDS011;66299;47.514;19.218;2023-07-20T10:08:05;9.82;;;2.90;;
68188;SDS011;66299;47.514;19.218;2023-07-20T10:10:49;9.02;;;2.85;;
68188;SDS011;66299;47.514;19.218;2023-07-20T10:13:20;10.23;;;2.75;;
68188;SDS011;66299;47.514;19.218;2023-07-20T10:15:58;12.55;;;2.90;;
68188;SDS011;66299;47.514;19.218;2023-07-20T10:18:34;12.35;;;3.00;;
68188;SDS011;66299;47.514;19.218;2023-07-20T10:21:09;9.45;;;2.80;;
68188;SDS011;66299;47.514;19.218;2023-07-20T10:23:42;7.78;;;2.95;;
68188;SDS011;66299;47.514;19.218;2023-07-20T10:26:14;17.33;;;3.45;;
68188;SDS011;66299;47.514;19.218;2023-07-20T10:28:43;8.65;;;2.83;;
68188;SDS011;66299;47.514;19.218;2023-07-20T10:31:14;13.10;;;3.08;;
68188;SDS011;66299;47.514;19.218;2023-07-20T10:36:20;15.60;;;3.00;;
68188;SDS011;66299;47.514;19.218;2023-07-20T10:38:58;11.63;;;2.78;;
68188;SDS011;66299;47.514;19.218;2023-07-20T10:41:29;11.30;;;2.72;;
68188;SDS011;66299;47.514;19.218;2023-07-20T10:44:04;14.82;;;3.20;;
68188;SDS011;66299;47.514;19.218;2023-07-20T10:46:43;10.05;;;2.65;;
68188;SDS011;66299;47.514;19.218;2023-07-20T10:49:17;9.90;;;2.83;;
68188;SDS011;66299;47.514;19.218;2023-07-20T10:51:57;10.68;;;2.63;;
68188;SDS011;66299;47.514;19.218;2023-07-20T10:54:33;11.38;;;2.85;;
68188;SDS011;66299;47.514;19.218;2023-07-20T10:57:28;10.02;;;2.40;;
68188;SDS011;66299;47.514;19.218;2023-07-20T11:00:07;15.43;;;2.55;;
68188;SDS011;66299;47.514;19.218;2023-07-20T11:02:46;10.00;;;2.40;;
68188;SDS011;66299;47.514;19.218;2023-07-20T11:05:34;10.10;;;2.33;;
68188;SDS011;66299;47.514;19.218;2023-07-20T11:08:06;11.38;;;2.60;;
68188;SDS011;66299;47.514;19.218;2023-07-20T11:10:43;11.10;;;2.42;;
68188;SDS011;66299;47.514;19.218;2023-07-20T11:16:04;10.15;;;2.50;;
68188;SDS011;66299;47.514;19.218;2023-07-20T11:18:37;10.15;;;2.70;;
68188;SDS011;66299;47.514;19.218;2023-07-20T11:21:08;9.03;;;2.50;;
68188;SDS011;66299;47.514;19.218;2023-07-20T11:23:41;7.95;;;2.40;;
68188;SDS011;66299;47.514;19.218;2023-07-20T11:26:15;7.93;;;2.42;;
68188;SDS011;66299;47.514;19.218;2023-07-20T11:28:49;16.08;;;2.53;;
68188;SDS011;66299;47.514;19.218;2023-07-20T11:31:20;12.00;;;2.70;;
68188;SDS011;66299;47.514;19.218;2023-07-20T11:33:53;19.17;;;2.80;;
68188;SDS011;66299;47.514;19.218;2023-07-20T11:36:40;12.07;;;2.50;;
68188;SDS011;66299;47.514;19.218;2023-07-20T11:39:14;9.32;;;2.63;;
68188;SDS011;66299;47.514;19.218;2023-07-20T11:41:47;12.55;;;2.78;;
68188;SDS011;66299;47.514;19.218;2023-07-20T11:44:20;9.95;;;2.70;;
68188;SDS011;66299;47.514;19.218;2023-07-20T11:47:00;12.07;;;2.90;;
68188;SDS011;66299;47.514;19.218;2023-07-20T11:49:34;10.68;;;2.50;;
68188;SDS011;66299;47.514;19.218;2023-07-20T11:52:06;9.68;;;2.33;;
68188;SDS011;66299;47.514;19.218;2023-07-20T11:54:39;7.35;;;2.20;;
68188;SDS011;66299;47.514;19.218;2023-07-20T11:57:15;8.82;;;2.50;;
68188;SDS011;66299;47.514;19.218;2023-07-20T11:59:56;9.90;;;2.40;;
68188;SDS011;66299;47.514;19.218;2023-07-20T12:02:28;8.77;;;2.35;;
68188;SDS011;66299;47.514;19.218;2023-07-20T12:04:59;12.63;;;2.42;;
68188;SDS011;66299;47.514;19.218;2023-07-20T12:07:34;10.18;;;2.47;;
68188;SDS011;66299;47.514;19.218;2023-07-20T12:10:07;10.98;;;2.65;;
68188;SDS011;66299;47.514;19.218;2023-07-20T12:12:39;12.95;;;2.35;;
68188;SDS011;66299;47.514;19.218;2023-07-20T12:15:20;9.68;;;2.58;;
68188;SDS011;66299;47.514;19.218;2023-07-20T12:17:51;11.23;;;2.90;;
68188;SDS011;66299;47.514;19.218;2023-07-20T12:20:28;9.02;;;2.55;;
68188;SDS011;66299;47.514;19.218;2023-07-20T12:22:59;8.63;;;2.67;;
68188;SDS011;66299;47.514;19.218;2023-07-20T12:25:38;9.32;;;2.55;;
68188;SDS011;66299;47.514;19.218;2023-07-20T12:28:11;10.25;;;2.80;;
68188;SDS011;66299;47.514;19.218;2023-07-20T12:30:45;9.48;;;2.60;;
68188;SDS011;66299;47.514;19.218;2023-07-20T12:33:31;8.13;;;2.60;;
68188;SDS011;66299;47.514;19.218;2023-07-20T12:36:00;9.52;;;2.38;;
68188;SDS011;66299;47.514;19.218;2023-07-20T12:38:33;10.10;;;2.43;;
68188;SDS011;66299;47.514;19.218;2023-07-20T12:41:01;7.00;;;2.20;;
68188;SDS011;66299;47.514;19.218;2023-07-20T12:43:31;9.75;;;2.40;;
68188;SDS011;66299;47.514;19.218;2023-07-20T12:46:04;12.32;;;2.38;;
68188;SDS011;66299;47.514;19.218;2023-07-20T12:48:35;15.68;;;2.42;;
68188;SDS011;66299;47.514;19.218;2023-07-20T12:51:06;8.13;;;2.25;;
68188;SDS011;66299;47.514;19.218;2023-07-20T12:53:37;12.10;;;2.60;;
68188;SDS011;66299;47.514;19.218;2023-07-20T12:56:06;8.10;;;2.25;;
68188;SDS011;66299;47.514;19.218;2023-07-20T12:58:41;8.85;;;2.10;;
68188;SDS011;66299;47.514;19.218;2023-07-20T13:01:11;9.60;;;2.28;;
68188;SDS011;66299;47.514;19.218;2023-07-20T13:03:40;8.10;;;2.40;;
68188;SDS011;66299;47.514;19.218;2023-07-20T13:06:12;8.75;;;2.20;;
68188;SDS011;66299;47.514;19.218;2023-07-20T13:08:45;6.82;;;2.20;;
68188;SDS011;66299;47.514;19.218;2023-07-20T13:11:17;8.73;;;2.22;;
68188;SDS011;66299;47.514;19.218;2023-07-20T13:13:47;7.93;;;2.30;;
68188;SDS011;66299;47.514;19.218;2023-07-20T13:16:20;13.48;;;2.58;;
68188;SDS011;66299;47.514;19.218;2023-07-20T13:18:51;14.40;;;3.10;;
68188;SDS011;66299;47.514;19.218;2023-07-20T13:21:24;10.18;;;2.22;;
68188;SDS011;66299;47.514;19.218;2023-07-20T13:23:57;7.88;;;2.30;;
68188;SDS011;66299;47.514;19.218;2023-07-20T13:26:26;8.55;;;2.38;;
68188;SDS011;66299;47.514;19.218;2023-07-20T13:29:01;11.93;;;2.25;;
68188;SDS011;66299;47.514;19.218;2023-07-20T13:31:33;8.15;;;2.20;;
68188;SDS011;66299;47.514;19.218;2023-07-20T13:34:11;6.32;;;2.22;;
68188;SDS011;66299;47.514;19.218;2023-07-20T13:36:44;8.65;;;2.20;;
68188;SDS011;66299;47.514;19.218;2023-07-20T13:39:17;7.13;;;2.08;;
68188;SDS011;66299;47.514;19.218;2023-07-20T13:41:46;7.07;;;2.20;;
68188;SDS011;66299;47.514;19.218;2023-07-20T13:46:53;8.98;;;2.67;;
68188;SDS011;66299;47.514;19.218;2023-07-20T13:49:44;10.75;;;2.40;;
68188;SDS011;66299;47.514;19.218;2023-07-20T13:52:29;7.30;;;2.50;;
68188;SDS011;66299;47.514;19.218;2023-07-20T13:55:05;8.88;;;2.33;;
68188;SDS011;66299;47.514;19.218;2023-07-20T13:57:34;10.73;;;2.38;;
68188;SDS011;66299;47.514;19.218;2023-07-20T14:02:42;10.85;;;2.50;;
68188;SDS011;66299;47.514;19.218;2023-07-20T14:05:17;7.63;;;2.22;;
68188;SDS011;66299;47.514;19.218;2023-07-20T14:07:50;8.23;;;2.30;;
68188;SDS011;66299;47.514;19.218;2023-07-20T14:10:23;10.48;;;2.30;;
68188;SDS011;66299;47.514;19.218;2023-07-20T14:12:52;9.60;;;2.47;;
68188;SDS011;66299;47.514;19.218;2023-07-20T14:15:22;9.55;;;2.38;;
68188;SDS011;66299;47.514;19.218;2023-07-20T14:17:58;8.20;;;2.30;;
68188;SDS011;66299;47.514;19.218;2023-07-20T14:20:27;8.95;;;2.30;;
68188;SDS011;66299;47.514;19.218;2023-07-20T14:22:57;10.02;;;2.35;;
68188;SDS011;66299;47.514;19.218;2023-07-20T14:25:27;6.38;;;2.28;;
68188;SDS011;66299;47.514;19.218;2023-07-20T14:28:01;9.07;;;2.28;;
68188;SDS011;66299;47.514;19.218;2023-07-20T14:30:31;7.32;;;2.10;;
68188;SDS011;66299;47.514;19.218;2023-07-20T14:33:09;7.53;;;2.30;;
68188;SDS011;66299;47.514;19.218;2023-07-20T14:35:39;6.88;;;2.20;;
68188;SDS011;66299;47.514;19.218;2023-07-20T14:38:10;7.32;;;2.10;;
68188;SDS011;66299;47.514;19.218;2023-07-20T14:40:41;8.90;;;2.33;;
68188;SDS011;66299;47.514;19.218;2023-07-20T14:43:14;7.25;;;2.17;;
68188;SDS011;66299;47.514;19.218;2023-07-20T14:45:44;8.57;;;2.20;;
68188;SDS011;66299;47.514;19.218;2023-07-20T14:48:20;7.22;;;2.20;;
68188;SDS011;66299;47.514;19.218;2023-07-20T14:50:51;11.10;;;2.20;;
68188;SDS011;66299;47.514;19.218;2023-07-20T14:53:32;6.70;;;2.37;;
68188;SDS011;66299;47.514;19.218;2023-07-20T14:56:02;6.65;;;2.17;;
68188;SDS011;66299;47.514;19.218;2023-07-20T14:58:36;8.30;;;2.50;;
68188;SDS011;66299;47.514;19.218;2023-07-20T15:01:06;9.32;;;2.45;;
68188;SDS011;66299;47.514;19.218;2023-07-20T15:03:37;9.68;;;2.47;;
68188;SDS011;66299;47.514;19.218;2023-07-20T15:06:10;6.88;;;2.20;;
68188;SDS011;66299;47.514;19.218;2023-07-20T15:08:43;10.80;;;2.40;;